Time,TemperatureF,DewpointF,PressureIn,WindDirection,WindDirectionDegrees,WindSpeedMPH,WindSpeedGustMPH,Humidity,HourlyPrecipIn,Conditions,Clouds,dailyrainin,SoftwareType,DateUTC
2013-07-23 00:00:00,82.6,75.4,30.02,WSW,258,0.0,7.0,79,0.00,,CLR,0.00,VWS V14.01,2013-07-23 04:00:00,
2013-07-23 00:01:00,82.6,75.4,30.02,West,260,0.0,7.0,79,0.00,,FEW023,0.00,VWS V14.01,2013-07-23 04:01:00,
2013-07-23 00:02:00,82.6,75.4,30.02,West,268,0.0,3.0,79,0.00,,FEW023,0.00,VWS V14.01,2013-07-23 04:02:00,
2013-07-23 00:07:00,82.4,74.9,30.02,West,271,0.0,6.0,78,0.00,,FEW023,0.00,VWS V14.01,2013-07-23 04:07:00,
2013-07-23 00:12:00,82.6,75.4,30.02,West,278,0.0,6.0,79,0.00,,FEW023,0.00,VWS V14.01,2013-07-23 04:12:00,
2013-07-23 00:17:00,82.6,75.1,30.02,WSW,256,0.0,8.0,78,0.00,,FEW023,0.00,VWS V14.01,2013-07-23 04:17:00,
2013-07-23 00:22:00,82.4,74.5,30.02,WSW,257,0.0,8.0,77,0.00,,FEW023,0.00,VWS V14.01,2013-07-23 04:22:00,
2013-07-23 00:27:00,82.4,74.9,30.02,West,275,0.0,8.0,78,0.00,,FEW023,0.00,VWS V14.01,2013-07-23 04:27:00,
2013-07-23 00:30:00,82.4,75.2,30.02,West,272,0.0,8.0,79,0.00,,,0.00,VWS V14.01,2013-07-23 04:30:00,
2013-07-23 00:32:00,82.4,75.2,30.02,West,272,0.0,0.0,79,0.00,,FEW023,0.00,VWS V14.01,2013-07-23 04:32:00,
2013-07-23 00:37:00,82.4,74.9,30.02,WSW,256,0.0,3.0,78,0.00,,FEW023,0.00,VWS V14.01,2013-07-23 04:37:00,
2013-07-23 00:42:00,82.4,74.9,30.02,West,265,0.0,3.0,78,0.00,,FEW023,0.00,VWS V14.01,2013-07-23 04:42:00,
2013-07-23 00:47:00,82.4,74.9,30.02,West,270,0.0,4.0,78,0.00,,FEW023,0.00,VWS V14.01,2013-07-23 04:47:00,
2013-07-23 00:52:00,82.4,74.9,30.02,West,264,0.0,5.0,78,0.00,,FEW023,0.00,VWS V14.01,2013-07-23 04:52:00,
2013-07-23 00:57:00,82.2,74.3,30.02,West,267,0.0,5.0,77,0.00,,FEW023,0.00,VWS V14.01,2013-07-23 04:57:00,
2013-07-23 01:00:00,82.4,74.1,30.01,West,277,1.0,6.0,76,0.00,,,0.00,VWS V14.01,2013-07-23 05:00:00,
2013-07-23 01:02:00,82.4,74.1,30.01,West,278,0.0,1.0,76,0.00,,CLR,0.00,VWS V14.01,2013-07-23 05:02:00,
2013-07-23 01:07:00,82.4,73.7,30.01,West,277,0.0,6.0,75,0.00,,CLR,0.00,VWS V14.01,2013-07-23 05:07:00,
2013-07-23 01:12:00,82.4,74.1,30.01,West,277,0.0,6.0,76,0.00,,CLR,0.00,VWS V14.01,2013-07-23 05:12:00,
2013-07-23 01:17:00,82.4,74.1,30.01,West,278,0.0,6.0,76,0.00,,CLR,0.00,VWS V14.01,2013-07-23 05:17:00,
2013-07-23 01:22:00,82.6,75.1,30.01,West,267,6.0,6.0,78,0.00,,CLR,0.00,VWS V14.01,2013-07-23 05:22:00,
2013-07-23 01:27:00,82.6,75.1,30.01,West,267,0.0,6.0,78,0.00,,CLR,0.00,VWS V14.01,2013-07-23 05:27:00,
2013-07-23 01:30:00,82.4,74.9,30.01,West,265,2.0,6.0,78,0.00,,,0.00,VWS V14.01,2013-07-23 05:30:00,
2013-07-23 01:32:00,82.4,74.9,30.01,West,265,0.0,2.0,78,0.00,,CLR,0.00,VWS V14.01,2013-07-23 05:32:00,
2013-07-23 01:37:00,82.4,74.9,30.01,West,264,4.0,5.0,78,0.00,,CLR,0.00,VWS V14.01,2013-07-23 05:37:00,
2013-07-23 01:42:00,82.4,75.2,30.01,West,271,0.0,5.0,79,0.00,,CLR,0.00,VWS V14.01,2013-07-23 05:42:00,
2013-07-23 01:47:00,82.4,75.2,30.01,West,265,0.0,7.0,79,0.00,,CLR,0.00,VWS V14.01,2013-07-23 05:47:00,
2013-07-23 01:52:00,82.4,74.9,30.01,West,261,0.0,7.0,78,0.00,,CLR,0.00,VWS V14.01,2013-07-23 05:52:00,
2013-07-23 01:57:00,82.4,75.2,30.01,West,268,0.0,7.0,79,0.00,,CLR,0.00,VWS V14.01,2013-07-23 05:57:00,
2013-07-23 02:00:00,82.2,74.3,30.01,West,274,0.0,7.0,77,0.00,,,0.00,VWS V14.01,2013-07-23 06:00:00,
2013-07-23 02:02:00,82.2,74.7,30.01,WNW,284,2.0,2.0,78,0.00,,CLR,0.00,VWS V14.01,2013-07-23 06:02:00,
2013-07-23 02:30:00,82.4,75.2,30.00,West,270,1.0,10.0,79,0.00,,,0.00,VWS V14.01,2013-07-23 06:30:00,
2013-07-23 03:00:00,82.2,75.0,29.99,West,270,0.0,7.0,79,0.00,,,0.00,VWS V14.01,2013-07-23 07:00:00,
2013-07-23 03:30:00,82.2,74.7,29.99,West,270,1.0,10.0,78,0.00,,,0.00,VWS V14.01,2013-07-23 07:30:00,
2013-07-23 04:00:00,82.2,74.3,29.98,West,270,1.0,11.0,77,0.00,,,0.00,VWS V14.01,2013-07-23 08:00:00,
2013-07-23 04:30:00,82.2,74.3,29.97,West,270,1.0,11.0,77,0.00,,,0.00,VWS V14.01,2013-07-23 08:30:00,
2013-07-23 05:00:00,82.0,74.5,29.96,West,270,1.0,10.0,78,0.00,,,0.00,VWS V14.01,2013-07-23 09:00:00,
2013-07-23 05:30:00,82.0,74.5,29.96,West,270,0.0,8.0,78,0.00,,,0.00,VWS V14.01,2013-07-23 09:30:00,
2013-07-23 06:00:00,81.6,74.1,29.95,WSW,248,1.0,8.0,78,0.00,,,0.00,VWS V14.01,2013-07-23 10:00:00,
2013-07-23 06:30:00,81.6,74.1,29.98,West,270,0.0,7.0,78,0.00,,,0.00,VWS V14.01,2013-07-23 10:30:00,
2013-07-23 07:00:00,81.8,74.3,29.99,West,270,1.0,10.0,78,0.00,,,0.00,VWS V14.01,2013-07-23 11:00:00,
2013-07-23 07:30:00,82.0,73.7,30.00,West,270,1.0,8.0,76,0.00,,,0.00,VWS V14.01,2013-07-23 11:30:00,
2013-07-23 08:00:00,82.2,73.9,30.01,West,270,1.0,7.0,76,0.00,,,0.00,VWS V14.01,2013-07-23 12:00:00,
2013-07-23 08:30:00,82.0,73.7,30.00,West,270,1.0,8.0,76,0.00,,CLR,0.00,VWS V14.01,2013-07-23 12:30:00,
2013-07-23 08:51:00,82.2,73.9,30.01,West,270,1.0,7.0,76,0.00,,,0.00,VWS V14.01,2013-07-23 12:51:00,
2013-07-23 08:56:00,83.2,74.5,30.01,West,274,0.0,6.0,75,0.00,,,0.00,VWS V14.01,2013-07-23 12:56:00,
2013-07-23 09:00:00,82.2,73.9,30.01,West,270,1.0,7.0,76,0.00,,CLR,0.00,VWS V14.01,2013-07-23 13:00:00,
2013-07-23 09:01:00,83.4,74.2,30.02,West,260,6.0,6.0,74,0.00,,FEW018,0.00,VWS V14.01,2013-07-23 13:01:00,
2013-07-23 09:06:00,83.6,74.0,30.02,WNW,287,0.0,7.0,73,0.00,,FEW018,0.00,VWS V14.01,2013-07-23 13:06:00,
2013-07-23 09:11:00,83.8,74.2,30.02,West,270,0.0,7.0,73,0.00,,FEW018,0.00,VWS V14.01,2013-07-23 13:11:00,
2013-07-23 09:16:00,83.8,74.6,30.02,West,278,0.0,7.0,74,0.00,,FEW018,0.00,VWS V14.01,2013-07-23 13:16:00,
2013-07-23 09:21:00,84.0,74.0,30.02,WSW,253,0.0,7.0,72,0.00,,FEW018,0.00,VWS V14.01,2013-07-23 13:21:00,
2013-07-23 09:26:00,84.0,73.6,30.02,West,263,0.0,7.0,71,0.00,,FEW018,0.00,VWS V14.01,2013-07-23 13:26:00,
2013-07-23 09:30:00,84.1,74.1,30.02,WNW,282,0.0,7.0,72,0.00,,CLR,0.00,VWS V15.00,2013-07-23 13:30:00,
2013-07-23 09:31:00,84.1,74.1,30.02,WNW,282,0.0,7.0,72,0.00,,FEW018,0.00,VWS V14.01,2013-07-23 13:31:00,
2013-07-23 09:36:00,84.0,74.4,30.02,WSW,251,2.0,10.0,73,0.00,,FEW018,0.00,VWS V14.01,2013-07-23 13:36:00,
2013-07-23 09:41:00,84.0,74.0,30.02,West,268,0.0,10.0,72,0.00,,FEW018,0.00,VWS V14.01,2013-07-23 13:41:00,
2013-07-23 09:46:00,84.0,74.4,30.02,West,263,0.0,10.0,73,0.00,,FEW018,0.00,VWS V14.01,2013-07-23 13:46:00,
2013-07-23 09:51:00,84.1,74.1,30.02,WSW,256,0.0,10.0,72,0.00,,FEW018,0.00,VWS V14.01,2013-07-23 13:51:00,
2013-07-23 09:56:00,84.3,74.7,30.02,West,272,0.0,10.0,73,0.00,,FEW018,0.00,VWS V14.01,2013-07-23 13:56:00,
2013-07-23 10:00:00,83.4,74.2,30.02,West,260,5.0,6.0,74,0.00,,CLR,0.00,VWS V14.01,2013-07-23 14:00:00,
2013-07-23 10:01:00,84.5,74.9,30.02,West,260,2.0,3.0,73,0.00,,FEW018,0.00,VWS V14.01,2013-07-23 14:01:00,
2013-07-23 10:06:00,84.5,74.5,30.02,West,264,1.0,7.0,72,0.00,,FEW018,0.00,VWS V14.01,2013-07-23 14:06:00,
2013-07-23 10:11:00,84.5,74.9,30.02,West,271,0.0,7.0,73,0.00,,FEW018,0.00,VWS V14.01,2013-07-23 14:11:00,
2013-07-23 10:16:00,84.5,74.5,30.02,West,270,3.0,8.0,72,0.00,,FEW018,0.00,VWS V14.01,2013-07-23 14:16:00,
2013-07-23 10:21:00,84.5,74.9,30.02,West,264,2.0,8.0,73,0.00,,FEW018,0.00,VWS V14.01,2013-07-23 14:21:00,
2013-07-23 10:26:00,84.3,74.7,30.02,WSW,247,5.0,8.0,73,0.00,,FEW018,0.00,VWS V14.01,2013-07-23 14:26:00,
2013-07-23 10:30:00,84.1,74.1,30.02,WNW,282,0.0,7.0,72,0.00,,CLR,0.00,VWS V14.01,2013-07-23 14:30:00,
2013-07-23 10:31:00,84.3,74.3,30.02,West,277,0.0,0.0,72,0.00,,FEW018,0.00,VWS V14.01,2013-07-23 14:31:00,
2013-07-23 10:36:00,84.5,74.5,30.02,WSW,247,5.0,8.0,72,0.00,,FEW018,0.00,VWS V14.01,2013-07-23 14:36:00,
2013-07-23 10:41:00,85.1,74.6,30.02,West,274,0.0,8.0,71,0.00,,FEW018,0.00,VWS V14.01,2013-07-23 14:41:00,
2013-07-23 10:46:00,85.1,74.2,30.02,West,278,0.0,9.0,70,0.00,,FEW018,0.00,VWS V14.01,2013-07-23 14:46:00,
2013-07-23 10:51:00,85.1,74.2,30.02,WSW,258,1.0,9.0,70,0.00,,FEW018,0.00,VWS V14.01,2013-07-23 14:51:00,
2013-07-23 10:56:00,84.7,73.8,30.02,West,272,0.0,9.0,70,0.00,,FEW018,0.00,VWS V14.01,2013-07-23 14:56:00,
2013-07-23 11:00:00,84.5,74.9,30.02,WSW,247,2.0,10.0,73,0.00,,CLR,0.00,VWS V14.01,2013-07-23 15:00:00,
2013-07-23 11:01:00,84.7,74.7,30.02,West,264,5.0,6.0,72,0.00,,FEW028,0.00,VWS V14.01,2013-07-23 15:01:00,
2013-07-23 11:06:00,84.7,73.8,30.02,WSW,248,0.0,12.0,70,0.00,,FEW028,0.00,VWS V14.01,2013-07-23 15:06:00,
2013-07-23 11:11:00,84.7,74.7,30.02,NW,304,0.0,12.0,72,0.00,,FEW028,0.00,VWS V14.01,2013-07-23 15:11:00,
2013-07-23 11:16:00,84.7,74.3,30.02,WNW,287,0.0,12.0,71,0.00,,FEW028,0.00,VWS V14.01,2013-07-23 15:16:00,
2013-07-23 11:21:00,84.7,74.3,30.02,WSW,250,0.0,12.0,71,0.00,,FEW028,0.00,VWS V14.01,2013-07-23 15:21:00,
2013-07-23 11:26:00,84.5,74.5,30.02,West,261,0.0,12.0,72,0.00,,FEW028,0.00,VWS V14.01,2013-07-23 15:26:00,
2013-07-23 11:30:00,84.3,74.3,30.02,West,267,0.0,11.0,72,0.00,,CLR,0.00,VWS V14.01,2013-07-23 15:30:00,
2013-07-23 11:31:00,84.9,74.4,30.02,West,260,3.0,3.0,71,0.00,,FEW028,0.00,VWS V14.01,2013-07-23 15:31:00,
2013-07-23 11:36:00,85.1,74.6,30.02,West,260,0.0,8.0,71,0.00,,FEW028,0.00,VWS V14.01,2013-07-23 15:36:00,
2013-07-23 11:41:00,85.1,74.2,30.02,WSW,250,3.0,8.0,70,0.00,,FEW028,0.00,VWS V14.01,2013-07-23 15:41:00,
2013-07-23 11:46:00,84.7,74.7,30.01,WSW,247,0.0,8.0,72,0.00,,FEW028,0.00,VWS V14.01,2013-07-23 15:46:00,
2013-07-23 11:51:00,84.9,74.4,30.01,WNW,294,0.0,8.0,71,0.00,,FEW028,0.00,VWS V14.01,2013-07-23 15:51:00,
2013-07-23 11:56:00,84.5,74.9,30.01,West,261,0.0,8.0,73,0.00,,FEW028,0.00,VWS V14.01,2013-07-23 15:56:00,
2013-07-23 12:00:00,84.5,74.5,30.02,West,267,0.0,9.0,72,0.00,,CLR,0.00,VWS V14.01,2013-07-23 16:00:00,
2013-07-23 12:01:00,84.3,74.7,30.01,WSW,248,11.0,11.0,73,0.00,,SCT043,0.00,VWS V14.01,2013-07-23 16:01:00,
2013-07-23 12:06:00,84.7,75.1,30.01,WNW,288,3.0,11.0,73,0.00,,SCT043,0.00,VWS V14.01,2013-07-23 16:06:00,
2013-07-23 12:11:00,84.9,74.9,30.01,West,272,0.0,11.0,72,0.00,,SCT043,0.00,VWS V14.01,2013-07-23 16:11:00,
2013-07-23 12:16:00,85.1,74.6,30.01,WSW,247,5.0,11.0,71,0.00,,SCT043,0.00,VWS V14.01,2013-07-23 16:16:00,
2013-07-23 12:21:00,85.1,74.6,30.01,WSW,257,7.0,11.0,71,0.00,,SCT043,0.00,VWS V14.01,2013-07-23 16:21:00,
2013-07-23 12:26:00,85.3,75.2,30.01,West,267,5.0,12.0,72,0.00,,SCT043,0.00,VWS V14.01,2013-07-23 16:26:00,
2013-07-23 12:30:00,84.9,74.4,30.02,WSW,253,3.0,12.0,71,0.00,,CLR,0.00,VWS V14.01,2013-07-23 16:30:00,
2013-07-23 12:31:00,85.1,75.1,30.01,WSW,246,5.0,12.0,72,0.00,,SCT043,0.00,VWS V14.01,2013-07-23 16:31:00,
2013-07-23 12:36:00,85.1,74.6,30.01,WSW,256,7.0,12.0,71,0.00,,SCT043,0.00,VWS V14.01,2013-07-23 16:36:00,
2013-07-23 12:41:00,85.5,74.2,30.01,WSW,253,10.0,12.0,69,0.00,,SCT043,0.00,VWS V14.01,2013-07-23 16:41:00,
2013-07-23 12:46:00,85.3,73.6,30.00,West,278,6.0,12.0,68,0.00,,SCT043,0.00,VWS V14.01,2013-07-23 16:46:00,
2013-07-23 12:51:00,85.3,75.2,30.00,WSW,239,8.0,12.0,72,0.00,,SCT043,0.00,VWS V14.01,2013-07-23 16:51:00,
2013-07-23 12:56:00,85.5,74.6,30.00,WNW,289,5.0,12.0,70,0.00,,SCT043,0.00,VWS V14.01,2013-07-23 16:56:00,
2013-07-23 13:00:00,84.3,74.7,30.01,West,280,0.0,8.0,73,0.00,,CLR,0.00,VWS V14.01,2013-07-23 17:00:00,
2013-07-23 13:01:00,85.7,73.9,30.00,WSW,246,4.0,5.0,68,0.00,,BKN055,0.00,VWS V14.01,2013-07-23 17:01:00,
2013-07-23 13:06:00,85.9,75.4,30.00,West,261,3.0,12.0,71,0.00,,BKN055,0.00,VWS V14.01,2013-07-23 17:06:00,
2013-07-23 13:11:00,85.5,75.0,30.00,WNW,284,1.0,13.0,71,0.00,,BKN055,0.00,VWS V14.01,2013-07-23 17:11:00,
2013-07-23 13:17:00,85.5,75.0,30.00,West,270,3.0,13.0,71,0.00,,BKN055,0.00,VWS V14.01,2013-07-23 17:17:00,
2013-07-23 13:22:00,85.7,75.6,30.00,West,268,4.0,13.0,72,0.00,,BKN055,0.00,VWS V14.01,2013-07-23 17:22:00,
2013-07-23 13:27:00,85.3,75.7,30.00,WSW,257,8.0,13.0,73,0.00,,BKN055,0.00,VWS V14.01,2013-07-23 17:27:00,
2013-07-23 13:30:00,85.1,75.1,30.01,WSW,246,5.0,12.0,72,0.00,,CLR,0.00,VWS V14.01,2013-07-23 17:30:00,
2013-07-23 13:32:00,85.3,75.7,30.00,West,281,8.0,8.0,73,0.00,,BKN055,0.00,VWS V14.01,2013-07-23 17:32:00,
2013-07-23 13:37:00,85.3,74.8,30.00,WSW,248,7.0,11.0,71,0.00,,BKN055,0.00,VWS V14.01,2013-07-23 17:37:00,
2013-07-23 13:42:00,85.5,75.4,30.00,West,264,5.0,12.0,72,0.00,,BKN055,0.00,VWS V14.01,2013-07-23 17:42:00,
2013-07-23 13:47:00,85.7,75.6,30.00,WSW,248,6.0,13.0,72,0.00,,BKN055,0.00,VWS V14.01,2013-07-23 17:47:00,
2013-07-23 13:52:00,85.9,74.6,30.00,West,270,10.0,13.0,69,0.00,,BKN055,0.00,VWS V14.01,2013-07-23 17:52:00,
2013-07-23 13:57:00,85.7,75.6,30.00,SW,233,10.0,13.0,72,0.00,,BKN055,0.00,VWS V14.01,2013-07-23 17:57:00,
2013-07-23 14:00:00,85.7,74.4,30.00,WSW,247,3.0,12.0,69,0.00,,CLR,0.00,VWS V14.01,2013-07-23 18:00:00,
2013-07-23 14:02:00,85.5,75.4,29.99,West,277,4.0,8.0,72,0.00,,OVC090,0.00,VWS V14.01,2013-07-23 18:02:00,
2013-07-23 14:07:00,85.9,74.6,29.99,WSW,254,6.0,11.0,69,0.00,,OVC090,0.00,VWS V14.01,2013-07-23 18:07:00,
2013-07-23 14:12:00,85.7,75.2,29.99,WNW,301,3.0,14.0,71,0.00,,OVC090,0.00,VWS V14.01,2013-07-23 18:12:00,
2013-07-23 14:17:00,85.9,75.4,29.99,West,281,6.0,14.0,71,0.00,,OVC090,0.00,VWS V14.01,2013-07-23 18:17:00,
2013-07-23 14:23:00,85.9,75.4,29.99,WSW,240,6.0,14.0,71,0.00,,OVC090,0.00,VWS V14.01,2013-07-23 18:23:00,
2013-07-23 14:28:00,85.7,76.1,29.99,West,268,0.0,14.0,73,0.00,,OVC090,0.00,VWS V14.01,2013-07-23 18:28:00,
2013-07-23 14:30:00,85.3,75.7,30.00,WNW,291,6.0,13.0,73,0.00,,CLR,0.00,VWS V14.01,2013-07-23 18:30:00,
2013-07-23 14:33:00,85.5,75.9,29.99,West,267,0.0,7.0,73,0.00,,OVC090,0.00,VWS V14.01,2013-07-23 18:33:00,
2013-07-23 14:38:00,85.3,74.4,29.99,West,274,1.0,12.0,70,0.00,,OVC090,0.00,VWS V14.01,2013-07-23 18:38:00,
2013-07-23 14:43:00,85.3,75.2,29.99,WSW,246,7.0,12.0,72,0.00,,OVC090,0.00,VWS V14.01,2013-07-23 18:43:00,
2013-07-23 14:48:00,85.1,75.1,29.99,WSW,257,0.0,12.0,72,0.00,,OVC090,0.00,VWS V14.01,2013-07-23 18:48:00,
2013-07-23 14:53:00,85.1,74.6,29.99,West,275,5.0,12.0,71,0.00,,OVC090,0.00,VWS V14.01,2013-07-23 18:53:00,
2013-07-23 14:58:00,84.9,74.4,29.99,WNW,284,3.0,12.0,71,0.00,,OVC090,0.00,VWS V14.01,2013-07-23 18:58:00,
2013-07-23 15:00:00,85.5,75.4,29.99,WNW,285,6.0,13.0,72,0.00,,CLR,0.00,VWS V14.01,2013-07-23 19:00:00,
2013-07-23 15:03:00,84.9,74.9,29.99,West,267,1.0,9.0,72,0.00,,BKN047,0.00,VWS V14.01,2013-07-23 19:03:00,
2013-07-23 15:08:00,84.9,75.3,29.99,West,260,11.0,11.0,73,0.00,,BKN047,0.00,VWS V14.01,2013-07-23 19:08:00,
2013-07-23 15:13:00,84.3,75.5,29.99,West,280,5.0,12.0,75,0.00,,BKN047,0.00,VWS V14.01,2013-07-23 19:13:00,
2013-07-23 15:18:00,84.3,75.5,29.98,WSW,253,7.0,12.0,75,0.00,,BKN047,0.00,VWS V14.01,2013-07-23 19:18:00,
2013-07-23 15:24:00,84.3,75.1,29.98,West,281,5.0,17.0,74,0.00,,BKN047,0.00,VWS V14.01,2013-07-23 19:24:00,
2013-07-23 15:29:00,84.7,75.1,29.98,West,272,0.0,17.0,73,0.00,,BKN047,0.00,VWS V14.01,2013-07-23 19:29:00,
2013-07-23 15:30:00,85.5,75.9,29.99,West,260,0.0,14.0,73,0.00,,CLR,0.00,VWS V14.01,2013-07-23 19:30:00,
2013-07-23 15:34:00,84.7,75.5,29.97,WNW,282,2.0,4.0,74,0.00,,BKN047,0.00,VWS V14.01,2013-07-23 19:34:00,
2013-07-23 15:39:00,84.7,75.1,29.97,West,275,7.0,11.0,73,0.00,,BKN047,0.00,VWS V14.01,2013-07-23 19:39:00,
2013-07-23 15:44:00,84.5,74.9,29.97,WSW,246,4.0,11.0,73,0.00,,BKN047,0.00,VWS V14.01,2013-07-23 19:44:00,
2013-07-23 15:49:00,84.1,75.3,29.96,WSW,240,3.0,11.0,75,0.00,,BKN047,0.00,VWS V14.01,2013-07-23 19:49:00,
2013-07-23 15:54:00,84.1,75.7,29.96,West,261,0.0,11.0,76,0.00,,BKN047,0.00,VWS V14.01,2013-07-23 19:54:00,
2013-07-23 16:00:00,84.7,74.3,29.96,WNW,285,0.0,11.0,71,0.00,,BKN047,0.00,VWS V14.01,2013-07-23 20:00:00,
2013-07-23 16:05:00,85.5,74.2,29.96,WSW,254,0.0,7.0,69,0.00,,OVC095,0.00,VWS V14.01,2013-07-23 20:05:00,
2013-07-23 16:10:00,85.9,74.6,29.96,West,270,6.0,11.0,69,0.00,,OVC095,0.00,VWS V14.01,2013-07-23 20:10:00,
2013-07-23 16:15:00,85.7,75.2,29.96,WNW,298,2.0,11.0,71,0.00,,OVC095,0.00,VWS V14.01,2013-07-23 20:15:00,
2013-07-23 16:20:00,85.7,75.2,29.96,West,281,0.0,11.0,71,0.00,,OVC095,0.00,VWS V14.01,2013-07-23 20:20:00,
2013-07-23 16:25:00,85.9,74.6,29.96,WNW,302,0.0,11.0,69,0.00,,OVC095,0.00,VWS V14.01,2013-07-23 20:25:00,
2013-07-23 16:30:00,85.9,74.6,29.96,WSW,257,7.0,11.0,69,0.00,,OVC095,0.00,VWS V14.01,2013-07-23 20:30:00,
2013-07-23 16:35:00,85.9,74.1,29.95,WSW,248,0.0,7.0,68,0.00,,OVC095,0.00,VWS V14.01,2013-07-23 20:35:00,
2013-07-23 16:40:00,86.1,74.3,29.95,West,275,0.0,8.0,68,0.00,,OVC095,0.00,VWS V14.01,2013-07-23 20:40:00,
2013-07-23 16:45:00,85.7,75.2,29.96,WNW,287,0.0,8.0,71,0.00,,OVC095,0.00,VWS V14.01,2013-07-23 20:45:00,
2013-07-23 16:50:00,85.5,75.4,29.96,West,264,6.0,11.0,72,0.00,,OVC095,0.00,VWS V14.01,2013-07-23 20:50:00,
2013-07-23 16:55:00,85.1,73.4,29.96,WNW,288,3.0,11.0,68,0.00,,OVC095,0.00,VWS V14.01,2013-07-23 20:55:00,
2013-07-23 17:00:00,84.9,73.6,29.95,West,271,0.0,11.0,69,0.00,,-RA,0.00,VWS V14.01,2013-07-23 21:00:00,
2013-07-23 17:05:00,84.9,74.0,29.95,West,271,0.0,10.0,70,0.00,,-RA,0.00,VWS V14.01,2013-07-23 21:05:00,
2013-07-23 17:11:00,84.9,74.4,29.95,West,265,0.0,10.0,71,0.00,,-RA,0.00,VWS V14.01,2013-07-23 21:11:00,
2013-07-23 17:16:00,84.9,74.4,29.95,West,275,0.0,10.0,71,0.00,,-RA,0.00,VWS V14.01,2013-07-23 21:16:00,
2013-07-23 17:21:00,85.1,74.2,29.95,West,265,0.0,10.0,70,0.00,,-RA,0.00,VWS V14.01,2013-07-23 21:21:00,
2013-07-23 17:26:00,85.3,74.8,29.95,West,265,0.0,10.0,71,0.00,,-RA,0.00,VWS V14.01,2013-07-23 21:26:00,
2013-07-23 17:30:00,85.9,74.6,29.95,West,268,0.0,11.0,69,0.00,,CLR,0.00,VWS V14.01,2013-07-23 21:30:00,
2013-07-23 17:31:00,85.3,74.0,29.95,WNW,284,0.0,10.0,69,0.00,,-RA,0.00,VWS V14.01,2013-07-23 21:31:00,
2013-07-23 17:36:00,85.1,74.2,29.95,West,280,0.0,3.0,70,0.00,,-RA,0.00,VWS V14.01,2013-07-23 21:36:00,
2013-07-23 17:41:00,84.7,74.3,29.95,West,260,0.0,6.0,71,0.00,,-RA,0.00,VWS V14.01,2013-07-23 21:41:00,
2013-07-23 17:46:00,84.9,74.9,29.95,WSW,257,0.0,6.0,72,0.00,,-RA,0.00,VWS V14.01,2013-07-23 21:46:00,
2013-07-23 17:51:00,84.7,74.7,29.95,West,272,0.0,6.0,72,0.00,,-RA,0.00,VWS V14.01,2013-07-23 21:51:00,
2013-07-23 17:56:00,84.3,74.7,29.95,West,271,0.0,6.0,73,0.00,,-RA,0.00,VWS V14.01,2013-07-23 21:56:00,
2013-07-23 18:00:00,84.9,73.6,29.95,West,272,0.0,11.0,69,0.00,,CLR,0.00,VWS V14.01,2013-07-23 22:00:00,
2013-07-23 18:01:00,84.1,74.5,29.94,West,263,0.0,2.0,73,0.00,,BKN045,0.00,VWS V14.01,2013-07-23 22:01:00,
2013-07-23 18:06:00,84.0,74.8,29.94,West,263,0.0,2.0,74,0.00,,BKN045,0.00,VWS V14.01,2013-07-23 22:06:00,
2013-07-23 18:11:00,84.0,74.8,29.94,West,263,0.0,2.0,74,0.00,,BKN045,0.00,VWS V14.01,2013-07-23 22:11:00,
2013-07-23 18:17:00,84.1,74.9,29.93,West,263,0.0,2.0,74,0.00,,BKN045,0.00,VWS V14.01,2013-07-23 22:17:00,
2013-07-23 18:22:00,84.1,74.9,29.93,WSW,250,0.0,4.0,74,0.00,,BKN045,0.00,VWS V14.01,2013-07-23 22:22:00,
2013-07-23 18:27:00,84.0,75.2,29.93,WSW,257,0.0,6.0,75,0.00,,BKN045,0.00,VWS V14.01,2013-07-23 22:27:00,
2013-07-23 18:30:00,85.3,74.0,29.95,West,281,2.0,10.0,69,0.00,,CLR,0.00,VWS V14.01,2013-07-23 22:30:00,
2013-07-23 18:32:00,83.8,75.4,29.92,WSW,257,0.0,0.0,76,0.00,,BKN045,0.00,VWS V14.01,2013-07-23 22:32:00,
2013-07-23 18:37:00,83.8,75.0,29.92,WSW,258,0.0,2.0,75,0.00,,BKN045,0.00,VWS V14.01,2013-07-23 22:37:00,
2013-07-23 18:42:00,83.8,75.0,29.92,West,277,0.0,6.0,75,0.00,,BKN045,0.00,VWS V14.01,2013-07-23 22:42:00,
2013-07-23 18:47:00,83.8,75.0,29.92,West,270,2.0,6.0,75,0.00,,BKN045,0.00,VWS V14.01,2013-07-23 22:47:00,
2013-07-23 18:52:00,83.6,74.8,29.92,West,272,0.0,7.0,75,0.00,,BKN045,0.00,VWS V14.01,2013-07-23 22:52:00,
2013-07-23 18:57:00,83.6,74.8,29.92,West,268,0.0,7.0,75,0.00,,BKN045,0.00,VWS V14.01,2013-07-23 22:57:00,
2013-07-23 19:00:00,84.1,74.5,29.94,West,263,2.0,6.0,73,0.00,,CLR,0.00,VWS V14.01,2013-07-23 23:00:00,
2013-07-23 19:02:00,83.8,74.6,29.92,West,270,4.0,4.0,74,0.00,,BKN046,0.00,VWS V14.01,2013-07-23 23:02:00,
2013-07-23 19:07:00,84.0,75.2,29.92,West,265,0.0,6.0,75,0.00,,BKN046,0.00,VWS V14.01,2013-07-23 23:07:00,
2013-07-23 19:13:00,84.1,74.9,29.92,West,278,2.0,6.0,74,0.00,,BKN046,0.00,VWS V14.01,2013-07-23 23:13:00,
2013-07-23 19:18:00,84.0,75.2,29.92,West,275,0.0,6.0,75,0.00,,BKN046,0.00,VWS V14.01,2013-07-23 23:18:00,
2013-07-23 19:23:00,84.0,75.6,29.92,West,265,2.0,6.0,76,0.00,,BKN046,0.00,VWS V14.01,2013-07-23 23:23:00,
2013-07-23 19:28:00,83.8,75.0,29.92,West,265,0.0,6.0,75,0.00,,BKN046,0.00,VWS V14.01,2013-07-23 23:28:00,
2013-07-23 19:30:00,83.8,75.0,29.92,WSW,257,0.0,6.0,75,0.00,,CLR,0.00,VWS V14.01,2013-07-23 23:30:00,
2013-07-23 19:33:00,83.8,74.6,29.92,West,267,2.0,6.0,74,0.00,,BKN046,0.00,VWS V14.01,2013-07-23 23:33:00,
2013-07-23 19:38:00,83.8,75.0,29.92,West,280,0.0,6.0,75,0.00,,BKN046,0.00,VWS V14.01,2013-07-23 23:38:00,
2013-07-23 19:43:00,83.6,75.2,29.92,WSW,258,0.0,7.0,76,0.00,,BKN046,0.00,VWS V14.01,2013-07-23 23:43:00,
2013-07-23 19:48:00,83.6,75.2,29.92,West,280,0.0,7.0,76,0.00,,BKN046,0.00,VWS V14.01,2013-07-23 23:48:00,
2013-07-23 19:53:00,83.4,75.1,29.92,West,280,0.0,7.0,76,0.00,,BKN046,0.00,VWS V14.01,2013-07-23 23:53:00,
2013-07-23 19:58:00,83.4,75.1,29.92,West,270,0.0,7.0,76,0.00,,BKN046,0.00,VWS V14.01,2013-07-23 23:58:00,
2013-07-23 20:00:00,83.8,74.6,29.92,West,271,0.0,7.0,74,0.00,,CLR,0.00,VWS V14.01,2013-07-24 00:00:00,
2013-07-23 20:03:00,83.2,74.8,29.91,West,272,1.0,6.0,76,0.00,,CLR,0.00,VWS V14.01,2013-07-24 00:03:00,
2013-07-23 20:09:00,83.2,74.5,29.91,WSW,258,2.0,7.0,75,0.00,,CLR,0.00,VWS V14.01,2013-07-24 00:09:00,
2013-07-23 20:14:00,83.2,74.5,29.91,WSW,254,6.0,8.0,75,0.00,,CLR,0.00,VWS V14.01,2013-07-24 00:14:00,
2013-07-23 20:19:00,83.0,75.1,29.91,West,260,2.0,10.0,77,0.00,,CLR,0.00,VWS V14.01,2013-07-24 00:19:00,
2013-07-23 20:24:00,82.8,75.2,29.91,West,278,3.0,10.0,78,0.00,,CLR,0.00,VWS V14.01,2013-07-24 00:24:00,
2013-07-23 20:29:00,82.4,74.5,29.91,West,271,2.0,10.0,77,0.00,,CLR,0.00,VWS V14.01,2013-07-24 00:29:00,
2013-07-23 20:30:00,83.8,75.0,29.92,West,268,0.0,6.0,75,0.00,,CLR,0.00,VWS V14.01,2013-07-24 00:30:00,
2013-07-23 20:34:00,82.4,74.9,29.91,WNW,282,3.0,7.0,78,0.00,,CLR,0.00,VWS V14.01,2013-07-24 00:34:00,
2013-07-23 20:40:00,82.2,73.1,29.91,West,272,2.0,8.0,74,0.00,,CLR,0.00,VWS V14.01,2013-07-24 00:40:00,
2013-07-23 20:45:00,82.4,73.7,29.91,West,261,0.0,8.0,75,0.00,,CLR,0.00,VWS V14.01,2013-07-24 00:45:00,
2013-07-23 20:50:00,82.6,74.3,29.91,WNW,282,0.0,8.0,76,0.00,,CLR,0.00,VWS V14.01,2013-07-24 00:50:00,
2013-07-23 20:55:00,82.6,74.3,29.91,West,275,0.0,8.0,76,0.00,,CLR,0.00,VWS V14.01,2013-07-24 00:55:00,
2013-07-23 21:00:00,82.6,74.3,29.91,WNW,282,0.0,8.0,76,0.00,,CLR,0.00,VWS V14.01,2013-07-24 01:00:00,
2013-07-23 21:05:00,82.6,74.3,29.91,West,267,0.0,6.0,76,0.00,,SCT022,0.00,VWS V14.01,2013-07-24 01:05:00,
2013-07-23 21:10:00,82.6,74.3,29.91,West,281,2.0,9.0,76,0.00,,SCT022,0.00,VWS V14.01,2013-07-24 01:10:00,
2013-07-23 21:15:00,82.6,74.7,29.91,West,270,0.0,9.0,77,0.00,,SCT022,0.00,VWS V14.01,2013-07-24 01:15:00,
2013-07-23 21:20:00,82.6,74.7,29.91,WSW,256,0.0,9.0,77,0.00,,SCT022,0.00,VWS V14.01,2013-07-24 01:20:00,
2013-07-23 21:25:00,82.6,74.7,29.91,West,265,0.0,9.0,77,0.00,,SCT022,0.00,VWS V14.01,2013-07-24 01:25:00,
2013-07-23 21:30:00,82.6,75.1,29.92,WNW,288,2.0,9.0,78,0.00,,SCT022,0.00,VWS V14.01,2013-07-24 01:30:00,
2013-07-23 21:35:00,82.4,74.9,29.92,West,281,0.0,5.0,78,0.00,,SCT022,0.00,VWS V14.01,2013-07-24 01:35:00,
2013-07-23 21:41:00,82.4,74.9,29.92,West,268,0.0,8.0,78,0.00,,SCT022,0.00,VWS V14.01,2013-07-24 01:41:00,
2013-07-23 21:46:00,82.6,75.1,29.92,West,275,5.0,8.0,78,0.00,,SCT022,0.00,VWS V14.01,2013-07-24 01:46:00,
2013-07-23 21:51:00,82.6,75.1,29.92,West,280,0.0,11.0,78,0.00,,SCT022,0.00,VWS V14.01,2013-07-24 01:51:00,
2013-07-23 21:56:00,82.6,75.1,29.92,West,260,0.0,11.0,78,0.00,,SCT022,0.00,VWS V14.01,2013-07-24 01:56:00,
2013-07-23 22:00:00,82.6,74.3,29.91,West,268,0.0,8.0,76,0.00,,CLR,0.00,VWS V14.01,2013-07-24 02:00:00,
2013-07-23 22:01:00,82.6,75.1,29.92,West,277,5.0,5.0,78,0.00,,CLR,0.00,VWS V14.01,2013-07-24 02:01:00,
2013-07-23 22:06:00,82.6,75.1,29.92,West,275,0.0,9.0,78,0.00,,CLR,0.00,VWS V14.01,2013-07-24 02:06:00,
2013-07-23 22:12:00,82.6,75.1,29.92,West,277,5.0,9.0,78,0.00,,CLR,0.00,VWS V14.01,2013-07-24 02:12:00,
2013-07-23 22:17:00,82.6,75.1,29.93,West,270,0.0,9.0,78,0.00,,CLR,0.00,VWS V14.01,2013-07-24 02:17:00,
2013-07-23 22:22:00,82.6,75.1,29.93,West,274,0.0,9.0,78,0.00,,CLR,0.00,VWS V14.01,2013-07-24 02:22:00,
2013-07-23 22:27:00,82.6,75.4,29.93,West,281,0.0,9.0,79,0.00,,CLR,0.00,VWS V14.01,2013-07-24 02:27:00,
2013-07-23 22:30:00,82.4,74.5,29.92,West,267,0.0,9.0,77,0.00,,CLR,0.00,VWS V14.01,2013-07-24 02:30:00,
2013-07-23 22:33:00,82.6,75.4,29.93,WSW,258,0.0,6.0,79,0.00,,CLR,0.00,VWS V14.01,2013-07-24 02:33:00,
2013-07-23 22:38:00,82.6,75.4,29.93,WNW,292,0.0,8.0,79,0.00,,CLR,0.00,VWS V14.01,2013-07-24 02:38:00,
2013-07-23 22:43:00,82.6,75.8,29.93,WNW,292,0.0,8.0,80,0.00,,CLR,0.00,VWS V14.01,2013-07-24 02:43:00,
2013-07-23 22:48:00,82.4,75.2,29.94,WNW,285,0.0,8.0,79,0.00,,CLR,0.00,VWS V14.01,2013-07-24 02:48:00,
2013-07-23 22:53:00,82.6,75.4,29.94,West,277,0.0,8.0,79,0.00,,CLR,0.00,VWS V14.01,2013-07-24 02:53:00,
2013-07-23 22:58:00,82.6,75.4,29.94,West,277,0.0,8.0,79,0.00,,CLR,0.00,VWS V14.01,2013-07-24 02:58:00,
2013-07-23 23:00:00,82.6,75.1,29.92,West,275,0.0,11.0,78,0.00,,OVC095,0.00,VWS V15.00,2013-07-24 03:00:00,
2013-07-23 23:03:00,82.6,75.4,29.94,West,281,0.0,2.0,79,0.00,,FEW020,0.00,VWS V14.01,2013-07-24 03:03:00,
2013-07-23 23:08:00,82.6,75.8,29.94,West,263,1.0,4.0,80,0.00,,FEW020,0.00,VWS V14.01,2013-07-24 03:08:00,
2013-07-23 23:14:00,82.4,74.9,29.94,WNW,282,0.0,6.0,78,0.00,,FEW020,0.00,VWS V14.01,2013-07-24 03:14:00,
2013-07-23 23:19:00,82.6,74.7,29.94,West,272,0.0,6.0,77,0.00,,FEW020,0.00,VWS V14.01,2013-07-24 03:19:00,
2013-07-23 23:24:00,82.6,75.4,29.94,WNW,292,0.0,6.0,79,0.00,,FEW020,0.00,VWS V14.01,2013-07-24 03:24:00,
2013-07-23 23:29:00,82.8,75.2,29.94,NW,304,0.0,6.0,78,0.00,,FEW020,0.00,VWS V14.01,2013-07-24 03:29:00,
2013-07-23 23:30:00,82.6,75.4,29.93,West,277,0.0,9.0,79,0.00,,CLR,0.00,VWS V14.01,2013-07-24 03:30:00,
2013-07-23 23:34:00,82.8,75.6,29.95,WNW,292,0.0,6.0,79,0.00,,FEW020,0.00,VWS V14.01,2013-07-24 03:34:00,
2013-07-23 23:39:00,82.8,75.6,29.95,WSW,256,0.0,6.0,79,0.00,,FEW020,0.00,VWS V14.01,2013-07-24 03:39:00,
2013-07-23 23:44:00,82.8,75.6,29.95,West,268,2.0,6.0,79,0.00,,FEW020,0.00,VWS V14.01,2013-07-24 03:44:00,
2013-07-23 23:49:00,82.6,75.4,29.94,West,268,5.0,7.0,79,0.00,,FEW020,0.00,VWS V14.01,2013-07-24 03:49:00,
2013-07-23 23:54:00,82.6,75.4,29.94,West,261,0.0,7.0,79,0.00,,FEW020,0.00,VWS V14.01,2013-07-24 03:54:00,
2013-07-23 23:59:00,82.6,75.8,29.94,West,267,0.0,10.0,80,0.00,,FEW020,0.00,VWS V14.01,2013-07-24 03:59:00,